San Juan, PR

8:41 PM AST on July 04, 2015 (GMT -0400)
Condado, Calle Earle, At The Ocean | | Change Station
CLOSE
Current Station
Personal Weather Station
Location: San Juan, SAN JUAN
Elevation: 10 ft
Nearby Weather Stations

Elev 10 ft 18.46 °N, 66.07 °W | Updated 10 seconds ago

Scattered Clouds
Scattered Clouds
81.8 °F
Feels Like 88 °F
N
16.0
Wind Variable Wind from NE
Gusts 21.0 mph

Today
High -- | Low -- °F
--% Chance of Precip.
Yesterday
High -- | Low -- °F
Precip. -- in
5:52 AM 7:05 PM
Waning Gibbous, 89% visible
Pressure 30.09 in
Visibility 9.0 miles
Clouds Scattered Clouds 2200 ft
Scattered Clouds 8000 ft
Heat Index 88 °F
Dew Point 75 °F
Humidity 80%
Rainfall 0.00 in
Snow Depth Not available.
UV 0 out of 12
Pollen Not available.
Air Quality Not available.
Flu Activity Not available.
METAR TJSJ 042356Z 08016KT 9SM SCT022 SCT080 28/24 A3010 RMK AO2 SLP190 HZ ALQDS T02780239 10311 20278 53013

More Conditions Fewer Conditions

Pressure 30.09 in
Visibility 9.0 miles
Clouds Scattered Clouds 2200 ft
Scattered Clouds 8000 ft
Heat Index 88 °F
Dew Point 75 °F
Humidity 80%
Rainfall 0.00 in
Snow Depth Not available.
UV 0 out of 12
Pollen Not available.
Air Quality Not available.
Flu Activity Not available.
METAR TJSJ 042356Z 08016KT 9SM SCT022 SCT080 28/24 A3010 RMK AO2 SLP190 HZ ALQDS T02780239 10311 20278 53013

More Conditions Fewer Conditions

10-Day Weather Forecast

×

Almanac

Astronomy

Jul. 04, 2015 Rise Set
Actual Time
Civil Twilight
Nautical Twilight
Astronomical Twilight
Moon
Length of Visible Light
Length of Day
Tomorrow will be .
, % of the Moon is Illuminated

Today's Extremes

State Highs State Lows

Community

WunderPhotos

Upload Photos

1,835,125 photos uploaded!

WunderBlogs® & News

Nearby

Air Quality

  Air Quality AQ Index Pollutant
Not available.

Snow Depth

Station Depth Elevation

Earthquake Activity

City Distance Mag. Time & Date
Minimum magnitude displayed is 2.5.

Coastal Water Temperatures

Place Temperature

Stations

Nearby Weather Stations

Station Location Temp. Windchill Dew Point Humidity Wind Precip. Elev Updated Type